createdAt,value
2018-07-23T04:09:49.735Z,19.71
2018-07-23T04:10:15.259Z,19.76
2018-07-23T04:10:40.767Z,19.86
2018-07-23T04:11:06.266Z,19.76
2018-07-23T04:11:31.982Z,19.74
2018-07-23T04:11:57.474Z,19.79
2018-07-23T04:12:22.957Z,19.69
2018-07-23T04:12:48.436Z,19.84
2018-07-23T04:13:13.958Z,19.84
2018-07-23T04:13:39.447Z,19.79
2018-07-23T04:14:04.926Z,19.69
2018-07-23T04:14:30.431Z,19.69
2018-07-23T04:14:55.914Z,19.79
2018-07-23T04:15:21.488Z,19.74
2018-07-23T04:15:46.987Z,19.71
2018-07-23T04:16:12.477Z,19.79
2018-07-23T04:16:37.954Z,19.73
2018-07-23T04:17:03.438Z,19.76
2018-07-23T04:17:28.958Z,19.69
2018-07-23T04:17:54.422Z,19.73
2018-07-23T04:18:19.944Z,19.74
2018-07-23T04:18:45.432Z,19.76
2018-07-23T04:19:10.910Z,19.77
2018-07-23T04:20:08.930Z,19.77
2018-07-23T04:20:34.435Z,19.7
2018-07-23T04:20:59.928Z,19.69
2018-07-23T04:21:25.407Z,19.71
2018-07-23T04:21:50.891Z,19.74
2018-07-23T04:22:16.384Z,19.86
2018-07-23T04:22:41.865Z,19.77
2018-07-23T04:23:07.345Z,19.79
2018-07-23T04:23:32.979Z,19.85
2018-07-23T04:23:58.566Z,19.79
2018-07-23T04:24:24.025Z,19.82
2018-07-23T04:24:49.545Z,19.85
2018-07-23T04:25:15.041Z,19.85
2018-07-23T04:25:40.557Z,19.69
2018-07-23T04:26:06.147Z,19.85
2018-07-23T04:26:31.661Z,19.85
2018-07-23T04:26:57.137Z,19.85
2018-07-23T04:27:23.276Z,19.82
2018-07-23T04:27:48.788Z,19.85
2018-07-23T04:28:14.243Z,19.82
2018-07-23T04:28:39.723Z,19.85
2018-07-23T04:29:05.216Z,19.84
2018-07-23T04:29:53.042Z,19.84
2018-07-23T04:30:18.534Z,19.82
2018-07-23T04:30:44.015Z,19.82
2018-07-23T04:31:09.514Z,19.86
2018-07-23T04:31:34.991Z,19.81
2018-07-23T04:32:00.492Z,19.85
2018-07-23T04:32:25.987Z,19.85
2018-07-23T04:32:51.507Z,19.82
2018-07-23T04:33:17.004Z,19.84
2018-07-23T04:33:42.491Z,19.82
2018-07-23T04:34:07.958Z,19.81
2018-07-23T04:34:33.472Z,19.84
2018-07-23T04:34:58.972Z,19.81
2018-07-23T04:35:24.428Z,19.85
2018-07-23T04:36:17.863Z,19.85
2018-07-23T04:36:43.339Z,19.81
2018-07-23T04:37:08.837Z,19.89
2018-07-23T04:37:34.335Z,19.85
2018-07-23T04:37:59.852Z,19.82
2018-07-23T04:38:25.272Z,19.89
2018-07-23T04:38:50.787Z,19.85
2018-07-23T04:39:16.321Z,19.77
2018-07-23T04:39:41.811Z,19.86
2018-07-23T04:40:07.302Z,19.92
2018-07-23T04:40:32.805Z,19.95
2018-07-23T04:40:58.333Z,19.99
2018-07-23T04:41:23.838Z,20.06
2018-07-23T04:41:49.326Z,20.09
2018-07-23T04:42:14.867Z,20.14
2018-07-23T04:42:40.311Z,20.18
2018-07-23T04:43:05.820Z,20.26
2018-07-23T04:43:31.283Z,20.26
2018-07-23T04:43:56.756Z,20.26
2018-07-23T04:44:22.240Z,20.31
2018-07-23T04:44:47.756Z,20.41
2018-07-23T04:45:13.246Z,20.5
2018-07-23T04:45:38.731Z,20.51
2018-07-23T04:46:04.208Z,20.59
2018-07-23T04:46:57.195Z,20.75
2018-07-23T04:47:22.705Z,20.75
2018-07-23T04:47:48.204Z,20.78
2018-07-23T04:48:13.703Z,20.81
2018-07-23T04:48:39.213Z,20.9
2018-07-23T04:49:04.718Z,20.93
2018-07-23T04:49:30.198Z,21
2018-07-23T04:49:55.716Z,20.96
2018-07-23T04:50:21.231Z,20.99
2018-07-23T04:50:46.709Z,21.11
2018-07-23T04:51:12.242Z,21.09
2018-07-23T04:51:37.727Z,21.12
2018-07-23T04:52:03.234Z,21.05
2018-07-23T04:52:28.729Z,21.07
2018-07-23T04:52:54.223Z,21.11
2018-07-23T04:53:19.741Z,20.95
2018-07-23T04:53:45.222Z,21
2018-07-23T04:54:10.729Z,21
2018-07-23T04:54:36.215Z,20.82
2018-07-23T04:55:01.702Z,20.9
2018-07-23T04:55:27.194Z,20.84
2018-07-23T04:55:52.731Z,20.85
2018-07-23T04:56:18.239Z,20.78
2018-07-23T04:56:43.793Z,20.72
2018-07-23T04:57:09.213Z,20.69
2018-07-23T04:57:34.711Z,20.69
2018-07-23T04:58:00.211Z,20.7
2018-07-23T04:59:08.452Z,20.62
2018-07-23T04:59:33.951Z,20.65
2018-07-23T04:59:59.448Z,20.55
2018-07-23T05:00:24.979Z,20.48
2018-07-23T05:00:50.449Z,20.48
2018-07-23T05:01:15.958Z,20.52
2018-07-23T05:01:41.459Z,20.43
2018-07-23T05:02:06.947Z,20.41
2018-07-23T05:02:32.446Z,20.4
2018-07-23T05:02:57.955Z,20.4
2018-07-23T05:03:23.638Z,20.34
2018-07-23T05:03:49.142Z,20.4
2018-07-23T05:04:14.638Z,20.24
2018-07-23T05:04:40.205Z,20.26
2018-07-23T05:05:05.660Z,20.25
2018-07-23T05:05:31.160Z,20.32
2018-07-23T05:05:56.919Z,20.32
2018-07-23T05:06:22.233Z,20.26
2018-07-23T05:06:47.730Z,20.25
2018-07-23T05:07:13.218Z,20.25
2018-07-23T05:07:38.717Z,20.25
2018-07-23T05:08:04.184Z,20.18
2018-07-23T05:08:29.668Z,20.18
2018-07-23T05:08:55.161Z,20.22
2018-07-23T05:09:20.652Z,20.31
2018-07-23T05:09:46.137Z,20.24
2018-07-23T05:10:11.658Z,20.22
2018-07-23T05:10:37.170Z,20.36
2018-07-23T05:11:02.647Z,20.31
2018-07-23T05:11:28.129Z,20.26
2018-07-23T05:11:53.592Z,20.28
2018-07-23T05:12:19.058Z,20.28
2018-07-23T05:12:44.537Z,20.26
2018-07-23T05:13:10.010Z,20.26
2018-07-23T05:13:35.484Z,20.22
2018-07-23T05:14:00.972Z,20.24
2018-07-23T05:14:26.474Z,20.24
2018-07-23T05:14:51.944Z,20.22
2018-07-23T05:15:17.428Z,20.26
2018-07-23T05:15:42.877Z,20.28
2018-07-23T05:16:08.384Z,20.25
2018-07-23T05:16:33.872Z,20.28
2018-07-23T05:16:59.400Z,20.31
2018-07-23T05:17:24.904Z,20.4
2018-07-23T05:17:50.410Z,20.39
2018-07-23T05:18:15.903Z,20.39
2018-07-23T05:18:41.398Z,20.52
2018-07-23T05:19:06.897Z,20.63
2018-07-23T05:19:32.408Z,20.6
2018-07-23T05:19:57.871Z,20.72
2018-07-23T05:20:23.450Z,20.63
2018-07-23T05:20:48.972Z,20.66
2018-07-23T05:21:14.459Z,20.85
2018-07-23T05:21:39.951Z,20.9
2018-07-23T05:22:05.484Z,20.92
2018-07-23T05:22:30.959Z,20.97
2018-07-23T05:22:56.445Z,20.96
2018-07-23T05:23:21.935Z,21.11
2018-07-23T05:23:47.417Z,21.06
2018-07-23T05:24:12.923Z,21.18
2018-07-23T05:24:38.431Z,21.24
2018-07-23T05:25:03.862Z,21.33
2018-07-23T05:25:29.405Z,21.29
2018-07-23T05:25:54.921Z,21.35
2018-07-23T05:26:20.426Z,21.25
2018-07-23T05:26:45.901Z,21.36
2018-07-23T05:27:11.357Z,21.46
2018-07-23T05:27:36.859Z,21.45
2018-07-23T05:28:02.363Z,21.51
2018-07-23T05:28:27.840Z,21.52
2018-07-23T05:28:53.330Z,21.62
2018-07-23T05:29:18.846Z,21.52
2018-07-23T05:29:44.380Z,21.58
2018-07-23T05:30:09.842Z,21.62
2018-07-23T05:30:35.318Z,21.76
2018-07-23T05:31:00.807Z,21.69
2018-07-23T05:31:26.306Z,21.73
2018-07-23T05:31:51.849Z,21.88
2018-07-23T05:32:17.279Z,21.85
2018-07-23T05:32:42.862Z,21.79
2018-07-23T05:33:08.384Z,21.92
2018-07-23T05:33:33.874Z,21.99
2018-07-23T05:33:59.365Z,22.04
2018-07-23T05:34:24.822Z,21.98
2018-07-23T05:34:50.313Z,22.1
2018-07-23T05:35:15.826Z,22.11
2018-07-23T05:35:41.316Z,22.15
2018-07-23T05:36:06.819Z,22.18
2018-07-23T05:36:32.308Z,22.2
2018-07-23T05:36:57.778Z,22.2
2018-07-23T05:37:50.951Z,22.26
2018-07-23T05:38:16.461Z,22.41
2018-07-23T05:38:41.939Z,22.39
2018-07-23T05:39:07.484Z,22.44
2018-07-23T05:40:05.518Z,22.54
2018-07-23T05:40:31.028Z,22.57
2018-07-23T05:40:56.507Z,22.55
2018-07-23T05:41:22.005Z,22.62
2018-07-23T05:41:47.505Z,22.7
2018-07-23T05:42:13.039Z,22.72
2018-07-23T05:42:38.542Z,22.68
2018-07-23T05:43:04.067Z,22.73
2018-07-23T05:43:29.549Z,22.76
2018-07-23T05:43:55.090Z,22.78
2018-07-23T05:44:20.591Z,22.87
2018-07-23T05:44:46.177Z,22.87
2018-07-23T05:45:11.671Z,22.83
2018-07-23T05:45:37.227Z,22.93
2018-07-23T05:46:02.713Z,22.91
2018-07-23T05:46:28.186Z,22.98
2018-07-23T05:47:31.280Z,23.02
2018-07-23T05:47:56.811Z,23.02
2018-07-23T05:48:22.312Z,23.09
2018-07-23T05:48:47.814Z,23.06
2018-07-23T05:49:13.320Z,23.15
2018-07-23T05:49:38.809Z,23.13
2018-07-23T05:50:04.304Z,23.12
2018-07-23T05:50:29.818Z,23.25
2018-07-23T05:50:55.309Z,23.25
2018-07-23T05:51:20.784Z,23.24
2018-07-23T05:51:46.302Z,23.24
2018-07-23T05:52:11.774Z,23.24
2018-07-23T05:52:37.273Z,23.36
2018-07-23T05:53:02.723Z,23.41
2018-07-23T05:53:28.265Z,23.34
2018-07-23T05:53:53.752Z,23.47
2018-07-23T05:54:19.244Z,23.46
2018-07-23T05:54:44.798Z,23.48
2018-07-23T05:55:10.221Z,23.5
2018-07-23T05:55:35.728Z,23.46
2018-07-23T05:56:01.248Z,23.5
2018-07-23T05:56:26.761Z,23.59
2018-07-23T05:56:52.246Z,23.59
2018-07-23T05:57:17.707Z,23.63
2018-07-23T05:57:43.296Z,23.63
2018-07-23T05:58:08.717Z,23.65
2018-07-23T05:58:34.200Z,23.68
2018-07-23T05:58:59.749Z,23.69
2018-07-23T05:59:25.228Z,23.66
2018-07-23T05:59:50.802Z,23.78
2018-07-23T06:00:16.268Z,23.77
2018-07-23T06:00:41.763Z,23.8
2018-07-23T06:01:07.273Z,23.92
2018-07-23T06:01:32.787Z,23.87
2018-07-23T06:01:58.286Z,23.92
2018-07-23T06:02:23.775Z,23.96
2018-07-23T06:02:49.330Z,23.99
2018-07-23T06:03:14.817Z,24.03
2018-07-23T06:03:40.372Z,24.06
2018-07-23T06:04:05.789Z,24.17
2018-07-23T06:04:31.280Z,24.11
2018-07-23T06:04:56.757Z,24.21
2018-07-23T06:05:22.290Z,24.23
2018-07-23T06:05:47.757Z,24.23
2018-07-23T06:06:13.299Z,24.3
2018-07-23T06:06:38.829Z,24.29
2018-07-23T06:07:04.352Z,24.36
2018-07-23T06:07:29.722Z,24.4
2018-07-23T06:07:55.216Z,24.4
2018-07-23T06:08:20.686Z,24.36
2018-07-23T06:08:46.215Z,24.5
2018-07-23T06:09:11.725Z,24.5
2018-07-23T06:09:37.225Z,24.42
2018-07-23T06:10:02.732Z,24.48
2018-07-23T06:10:28.248Z,24.58
2018-07-23T06:10:53.733Z,24.55
2018-07-23T06:11:19.212Z,24.57
2018-07-23T06:11:44.678Z,24.57
2018-07-23T06:12:32.496Z,24.61
2018-07-23T06:12:57.990Z,24.63
2018-07-23T06:13:23.499Z,24.54
2018-07-23T06:13:48.960Z,24.76
2018-07-23T06:14:14.453Z,24.61
2018-07-23T06:14:39.950Z,24.65
2018-07-23T06:15:05.427Z,24.74
2018-07-23T06:15:30.909Z,24.76
2018-07-23T06:15:56.436Z,24.8
2018-07-23T06:16:21.947Z,24.78
2018-07-23T06:16:47.453Z,24.85
2018-07-23T06:17:12.952Z,24.85
2018-07-23T06:17:38.451Z,24.84
2018-07-23T06:18:03.934Z,24.89
2018-07-23T06:18:29.440Z,24.98
2018-07-23T06:18:54.959Z,24.96
2018-07-23T06:19:20.482Z,24.99
2018-07-23T06:19:45.974Z,24.93
2018-07-23T06:20:11.471Z,25.07
2018-07-23T06:20:36.968Z,24.96
2018-07-23T06:21:02.463Z,25.07
2018-07-23T06:21:27.925Z,25.08
2018-07-23T06:21:53.448Z,25.16
2018-07-23T06:22:18.961Z,25.13
2018-07-23T06:22:44.466Z,25.11
2018-07-23T06:23:09.963Z,25.22
2018-07-23T06:23:35.474Z,25.28
2018-07-23T06:24:00.947Z,25.28
2018-07-23T06:24:26.451Z,25.28
2018-07-23T06:24:51.961Z,25.25
2018-07-23T06:25:17.441Z,25.32
2018-07-23T06:25:42.970Z,25.33
2018-07-23T06:26:08.392Z,25.38
2018-07-23T06:26:33.895Z,25.36
2018-07-23T06:26:59.381Z,25.38
2018-07-23T06:27:24.861Z,25.46
2018-07-23T06:27:50.360Z,25.55
2018-07-23T06:28:15.840Z,25.51
2018-07-23T06:28:41.316Z,25.51
2018-07-23T06:29:34.243Z,25.68
2018-07-23T06:29:59.804Z,25.72
2018-07-23T06:30:25.387Z,25.59
2018-07-23T06:30:50.798Z,25.73
2018-07-23T06:31:16.275Z,25.73
2018-07-23T06:31:41.783Z,25.73
2018-07-23T06:32:07.306Z,25.81
2018-07-23T06:32:32.809Z,25.83
2018-07-23T06:32:58.311Z,25.81
2018-07-23T06:33:23.806Z,25.8
2018-07-23T06:33:49.301Z,25.81
2018-07-23T06:34:14.762Z,25.84
2018-07-23T06:34:40.261Z,25.88
2018-07-23T06:35:05.750Z,25.88
2018-07-23T06:35:31.249Z,25.9
2018-07-23T06:35:56.739Z,25.95
2018-07-23T06:36:22.209Z,25.91
2018-07-23T06:36:47.707Z,26.03
2018-07-23T06:37:13.251Z,25.99
2018-07-23T06:37:38.785Z,26.05
2018-07-23T06:38:04.277Z,26.03
2018-07-23T06:38:29.768Z,26.03
2018-07-23T06:38:55.243Z,26.05
2018-07-23T06:39:20.753Z,26.1
2018-07-23T06:39:46.228Z,26.22
2018-07-23T06:40:11.727Z,26.22
2018-07-23T06:40:37.218Z,26.23
2018-07-23T06:41:02.696Z,26.29
2018-07-23T06:41:28.208Z,26.28
2018-07-23T06:41:53.724Z,26.25
2018-07-23T06:42:19.225Z,26.19
2018-07-23T06:42:44.720Z,26.33
2018-07-23T06:43:10.218Z,26.36
2018-07-23T06:43:35.673Z,26.44
2018-07-23T06:44:01.155Z,26.34
2018-07-23T06:44:26.645Z,26.43
2018-07-23T06:44:52.140Z,26.37
2018-07-23T06:45:17.637Z,26.44
2018-07-23T06:45:43.138Z,26.47
2018-07-23T06:46:08.638Z,26.48
2018-07-23T06:46:34.163Z,26.59
2018-07-23T06:46:59.653Z,26.56
2018-07-23T06:47:25.185Z,26.53
2018-07-23T06:47:50.757Z,26.59
2018-07-23T06:48:16.261Z,26.53
2018-07-23T06:48:41.738Z,26.62
2018-07-23T06:49:07.233Z,26.53
2018-07-23T06:49:32.700Z,26.53
2018-07-23T06:49:58.204Z,26.59
2018-07-23T06:50:23.696Z,26.68
2018-07-23T06:50:49.171Z,26.63
2018-07-23T06:51:57.416Z,26.68
2018-07-23T06:52:22.876Z,26.65
2018-07-23T06:52:48.403Z,26.73
2018-07-23T06:53:13.929Z,26.68
2018-07-23T06:53:39.448Z,26.77
2018-07-23T06:54:04.992Z,26.73
2018-07-23T06:54:30.472Z,26.78
2018-07-23T06:54:55.981Z,26.8
2018-07-23T06:55:21.471Z,26.71
2018-07-23T06:55:46.947Z,26.73
2018-07-23T06:56:12.432Z,26.7
2018-07-23T06:56:37.989Z,26.7
2018-07-23T06:57:03.447Z,26.77
2018-07-23T06:57:29.058Z,26.84
2018-07-23T06:57:54.442Z,26.77
2018-07-23T06:58:19.950Z,26.77
2018-07-23T06:58:45.430Z,26.78
2018-07-23T06:59:10.960Z,26.83
2018-07-23T06:59:36.457Z,26.78
2018-07-23T07:00:01.945Z,26.9
2018-07-23T07:00:27.453Z,26.84
2018-07-23T07:00:52.938Z,26.93
2018-07-23T07:01:18.416Z,26.93
2018-07-23T07:01:43.919Z,26.97
2018-07-23T07:02:09.403Z,27.03
2018-07-23T07:02:34.890Z,26.95
2018-07-23T07:03:00.391Z,27.02
2018-07-23T07:03:25.996Z,27.03
2018-07-23T07:03:51.380Z,27.08
2018-07-23T07:04:16.905Z,27.05
2018-07-23T07:04:42.396Z,27.18
2018-07-23T07:05:07.891Z,27.18
2018-07-23T07:05:33.411Z,27.25
2018-07-23T07:05:58.887Z,27.29
2018-07-23T07:06:24.454Z,27.26
2018-07-23T07:06:49.909Z,27.3
2018-07-23T07:07:15.418Z,27.37
2018-07-23T07:07:40.904Z,27.35
2018-07-23T07:08:06.396Z,27.37
2018-07-23T07:08:31.886Z,27.48
2018-07-23T07:08:57.372Z,27.4
2018-07-23T07:09:22.881Z,27.48
2018-07-23T07:09:48.380Z,27.45
2018-07-23T07:10:13.859Z,27.51
2018-07-23T07:10:39.350Z,27.48
2018-07-23T07:11:04.865Z,27.51
2018-07-23T07:11:30.362Z,27.58
2018-07-23T07:11:55.891Z,27.6
2018-07-23T07:12:21.393Z,27.58
2018-07-23T07:12:46.893Z,27.64
2018-07-23T07:13:12.370Z,27.7
2018-07-23T07:13:37.951Z,27.67
2018-07-23T07:14:03.366Z,27.7
2018-07-23T07:14:28.844Z,27.67
2018-07-23T07:14:54.341Z,27.67
2018-07-23T07:15:19.859Z,27.7
2018-07-23T07:15:45.368Z,27.75
2018-07-23T07:16:10.869Z,27.78
2018-07-23T07:16:36.368Z,27.82
2018-07-23T07:17:01.880Z,27.86
2018-07-23T07:17:27.365Z,27.82
2018-07-23T07:17:52.859Z,27.83
2018-07-23T07:18:18.342Z,27.89
2018-07-23T07:18:43.856Z,27.89
2018-07-23T07:19:09.366Z,28
2018-07-23T07:19:34.848Z,27.95
2018-07-23T07:20:00.381Z,27.98
2018-07-23T07:20:25.781Z,27.96
2018-07-23T07:21:28.947Z,28.02
2018-07-23T07:21:54.438Z,27.98
2018-07-23T07:22:19.944Z,28
2018-07-23T07:22:45.442Z,28.01
2018-07-23T07:23:10.939Z,28.1
2018-07-23T07:23:36.441Z,28.01
2018-07-23T07:24:01.961Z,27.98
2018-07-23T07:24:27.438Z,28.11
2018-07-23T07:24:52.941Z,28.11
2018-07-23T07:25:18.493Z,28.02
2018-07-23T07:25:44.033Z,28.12
2018-07-23T07:26:09.550Z,28.02
2018-07-23T07:26:35.054Z,28.02
2018-07-23T07:27:00.601Z,28.1
2018-07-23T07:27:26.130Z,28.05
2018-07-23T07:27:51.640Z,28.11
2018-07-23T07:28:44.631Z,28.01
2018-07-23T07:29:10.116Z,28.12
2018-07-23T07:29:35.600Z,28.08
2018-07-23T07:30:01.108Z,28.11
2018-07-23T07:30:26.632Z,28.12
2018-07-23T07:30:52.110Z,28.1
2018-07-23T07:31:17.610Z,28.11
2018-07-23T07:31:43.102Z,28.12
2018-07-23T07:32:08.588Z,28.12
2018-07-23T07:32:34.118Z,28.2
2018-07-23T07:32:59.600Z,28.19
2018-07-23T07:33:25.094Z,28.23
2018-07-23T07:33:50.554Z,28.22
2018-07-23T07:34:16.063Z,28.33
2018-07-23T07:34:41.606Z,28.32
2018-07-23T07:35:07.053Z,28.45
2018-07-23T07:35:32.538Z,28.35
2018-07-23T07:35:58.049Z,28.37
2018-07-23T07:36:23.547Z,28.38
2018-07-23T07:36:49.025Z,28.42
2018-07-23T07:37:14.558Z,28.45
2018-07-23T07:37:40.005Z,28.47
2018-07-23T07:38:05.561Z,28.47
2018-07-23T07:38:30.979Z,28.49
2018-07-23T07:38:56.495Z,28.52
2018-07-23T07:39:21.980Z,28.47
2018-07-23T07:39:47.479Z,28.44
2018-07-23T07:40:12.975Z,28.49
2018-07-23T07:40:38.459Z,28.45
2018-07-23T07:41:03.943Z,28.41
2018-07-23T07:41:29.425Z,28.45
2018-07-23T07:41:54.915Z,28.39
2018-07-23T07:42:20.413Z,28.47
2018-07-23T07:42:45.922Z,28.47
2018-07-23T07:43:11.397Z,28.47
2018-07-23T07:43:36.886Z,28.51
2018-07-23T07:44:02.406Z,28.42
2018-07-23T07:44:27.906Z,28.51
2018-07-23T07:44:53.416Z,28.59
2018-07-23T07:45:18.926Z,28.56
2018-07-23T07:45:44.422Z,28.62
2018-07-23T07:46:09.910Z,28.66
2018-07-23T07:46:35.465Z,28.69
2018-07-23T07:47:00.937Z,28.66
2018-07-23T07:47:26.406Z,28.7
2018-07-23T07:47:51.887Z,28.75
2018-07-23T07:48:17.364Z,28.76
2018-07-23T07:48:42.872Z,28.72
2018-07-23T07:49:08.383Z,28.78
2018-07-23T07:49:33.913Z,28.76
2018-07-23T07:49:59.392Z,28.76
2018-07-23T07:50:24.915Z,28.76
2018-07-23T07:50:50.389Z,28.76
2018-07-23T07:51:15.890Z,28.72
2018-07-23T07:51:41.346Z,28.75
2018-07-23T07:52:06.866Z,28.7
2018-07-23T07:52:32.361Z,28.88
2018-07-23T07:52:57.841Z,28.79
2018-07-23T07:53:23.329Z,28.72
2018-07-23T07:53:48.830Z,28.81
2018-07-23T07:54:14.337Z,28.86
2018-07-23T07:54:39.822Z,28.86
2018-07-23T07:55:05.292Z,28.88
2018-07-23T07:55:30.800Z,28.85
2018-07-23T07:55:56.285Z,28.94
2018-07-23T07:56:21.761Z,28.89
2018-07-23T07:56:47.249Z,28.96
2018-07-23T07:57:12.732Z,29.05
2018-07-23T07:57:38.247Z,29.04
2018-07-23T07:58:03.762Z,29.12
2018-07-23T07:58:29.245Z,29.19
2018-07-23T07:58:54.744Z,29.14
2018-07-23T07:59:20.223Z,29.19
2018-07-23T07:59:45.769Z,29.22
2018-07-23T08:00:11.267Z,29.29
2018-07-23T08:00:36.803Z,29.32
2018-07-23T08:01:02.302Z,29.27
2018-07-23T08:01:27.812Z,29.27
2018-07-23T08:01:53.322Z,29.27
2018-07-23T08:02:18.815Z,29.34
2018-07-23T08:02:44.295Z,29.34
2018-07-23T08:03:09.787Z,29.24
2018-07-23T08:03:35.275Z,29.32
2018-07-23T08:04:00.765Z,29.32
2018-07-23T08:04:26.237Z,29.32
2018-07-23T08:04:51.721Z,29.29
2018-07-23T08:05:17.209Z,29.23
2018-07-23T08:05:42.694Z,29.23
2018-07-23T08:06:08.202Z,29.22
2018-07-23T08:06:33.689Z,29.16
2018-07-23T08:06:59.201Z,29.16
2018-07-23T08:07:24.695Z,29.22
2018-07-23T08:07:50.151Z,29.16
2018-07-23T08:08:15.586Z,29.17
2018-07-23T08:08:41.052Z,29.17
2018-07-23T08:09:06.522Z,29.14
2018-07-23T08:09:32.024Z,29.22
2018-07-23T08:09:57.529Z,29.22
2018-07-23T08:10:23.010Z,29.24
2018-07-23T08:10:48.531Z,29.23
2018-07-23T08:11:14.056Z,29.16
2018-07-23T08:11:39.537Z,29.08
2018-07-23T08:12:05.042Z,29.2
2018-07-23T08:12:30.578Z,29.08
2018-07-23T08:12:56.031Z,29.13
2018-07-23T08:13:21.543Z,29.13
2018-07-23T08:13:47.053Z,29.1
2018-07-23T08:14:12.536Z,29.07
2018-07-23T08:14:38.032Z,29.12
2018-07-23T08:15:03.539Z,29.13
2018-07-23T08:15:29.041Z,29.14
2018-07-23T08:15:54.576Z,29.24
2018-07-23T08:16:20.038Z,29.31
2018-07-23T08:16:45.524Z,29.26
2018-07-23T08:17:11.026Z,29.34
2018-07-23T08:17:36.531Z,29.22
2018-07-23T08:18:02.032Z,29.27
2018-07-23T08:18:27.560Z,29.23
2018-07-23T08:19:35.765Z,29.39
2018-07-23T08:20:01.257Z,29.36
2018-07-23T08:20:26.757Z,29.38
2018-07-23T08:20:52.251Z,29.41
2018-07-23T08:21:17.741Z,29.35
2018-07-23T08:21:43.218Z,29.36
2018-07-23T08:22:08.724Z,29.47
2018-07-23T08:22:34.190Z,29.44
2018-07-23T08:22:59.684Z,29.53
2018-07-23T08:23:25.176Z,29.56
2018-07-23T08:23:50.706Z,29.57
2018-07-23T08:24:16.230Z,29.54
2018-07-23T08:24:41.739Z,29.59
2018-07-23T08:25:07.268Z,29.56
2018-07-23T08:25:32.695Z,29.56
2018-07-23T08:25:58.201Z,29.53
2018-07-23T08:26:23.694Z,29.59
2018-07-23T08:26:49.188Z,29.56
2018-07-23T08:27:14.692Z,29.49
2018-07-23T08:27:40.213Z,29.45
2018-07-23T08:28:05.696Z,29.49
2018-07-23T08:28:54.291Z,29.34
2018-07-23T08:29:19.777Z,29.36
2018-07-23T08:29:45.303Z,29.39
2018-07-23T08:30:10.794Z,29.42
2018-07-23T08:30:36.283Z,29.36
2018-07-23T08:31:01.794Z,29.41
2018-07-23T08:31:27.300Z,29.39
2018-07-23T08:31:52.924Z,29.38
2018-07-23T08:32:18.370Z,29.41
2018-07-23T08:32:43.826Z,29.45
2018-07-23T08:33:09.315Z,29.5
2018-07-23T08:33:34.775Z,29.45
2018-07-23T08:34:00.295Z,29.42
2018-07-23T08:34:25.763Z,29.44
2018-07-23T08:34:51.271Z,29.51
2018-07-23T08:35:16.767Z,29.57
2018-07-23T08:35:42.279Z,29.5
2018-07-23T08:36:07.818Z,29.54
2018-07-23T08:36:33.314Z,29.6
2018-07-23T08:36:58.783Z,29.63
2018-07-23T08:37:24.274Z,29.6
2018-07-23T08:37:49.795Z,29.56
2018-07-23T08:38:15.268Z,29.54
2018-07-23T08:38:40.794Z,29.47
2018-07-23T08:39:06.292Z,29.45
2018-07-23T08:39:31.777Z,29.49
2018-07-23T08:39:57.237Z,29.51
2018-07-23T08:40:22.753Z,29.51
2018-07-23T08:40:48.255Z,29.53
2018-07-23T08:41:13.739Z,29.56
2018-07-23T08:41:39.225Z,29.53
2018-07-23T08:42:04.753Z,29.63
2018-07-23T08:42:30.225Z,29.53
2018-07-23T08:42:55.733Z,29.6
2018-07-23T08:43:21.242Z,29.49
2018-07-23T08:43:46.748Z,29.66
2018-07-23T08:44:12.245Z,29.63
2018-07-23T08:44:37.724Z,29.69
2018-07-23T08:45:03.287Z,29.65
2018-07-23T08:45:28.735Z,29.71
2018-07-23T08:45:54.245Z,29.72
2018-07-23T08:46:19.737Z,29.69
2018-07-23T08:46:45.187Z,29.71
2018-07-23T08:47:10.664Z,29.69
2018-07-23T08:47:36.130Z,29.68
2018-07-23T08:48:01.606Z,29.79
2018-07-23T08:48:27.117Z,29.78
2018-07-23T08:48:52.606Z,29.75
2018-07-23T08:49:18.096Z,29.88
2018-07-23T08:49:43.555Z,29.9
2018-07-23T08:50:09.071Z,29.88
2018-07-23T08:50:34.590Z,29.82
2018-07-23T08:51:00.090Z,29.93
2018-07-23T08:51:25.637Z,29.88
2018-07-23T08:51:51.046Z,30
2018-07-23T08:52:16.582Z,30.05
2018-07-23T08:52:42.084Z,29.97
2018-07-23T08:53:07.589Z,30
2018-07-23T08:53:33.075Z,30.05
2018-07-23T08:53:58.561Z,30.08
2018-07-23T08:54:24.061Z,30.12
2018-07-23T08:54:49.552Z,30.13
2018-07-23T08:55:15.019Z,30.24
2018-07-23T08:55:40.465Z,30.28
2018-07-23T08:56:06.013Z,30.28
2018-07-23T08:56:31.439Z,30.32
2018-07-23T08:56:56.957Z,30.35
2018-07-23T08:57:22.449Z,30.35
2018-07-23T08:57:47.919Z,30.43
2018-07-23T08:58:13.419Z,30.39
2018-07-23T08:58:38.928Z,30.48
2018-07-23T08:59:04.420Z,30.46
2018-07-23T08:59:29.904Z,30.46
2018-07-23T08:59:55.355Z,30.37
2018-07-23T09:00:20.824Z,30.46
2018-07-23T09:00:46.320Z,30.51
2018-07-23T09:01:11.801Z,30.37
2018-07-23T09:01:37.316Z,30.46
2018-07-23T09:02:02.805Z,30.4
2018-07-23T09:02:28.304Z,30.48
2018-07-23T09:02:53.779Z,30.37
2018-07-23T09:03:19.311Z,30.32
2018-07-23T09:03:44.806Z,30.34
2018-07-23T09:04:10.312Z,30.44
2018-07-23T09:04:35.810Z,30.47
2018-07-23T09:05:01.314Z,30.5
2018-07-23T09:05:26.785Z,30.53
2018-07-23T09:05:52.247Z,30.62
2018-07-23T09:06:17.719Z,30.48
2018-07-23T09:06:43.203Z,30.47
2018-07-23T09:07:08.700Z,30.57
2018-07-23T09:07:34.210Z,30.55
2018-07-23T09:07:59.740Z,30.5
2018-07-23T09:08:25.295Z,30.54
2018-07-23T09:08:50.810Z,30.54
2018-07-23T09:09:16.203Z,30.5
2018-07-23T09:09:41.708Z,30.5
2018-07-23T09:10:07.201Z,30.32
2018-07-23T09:10:34.260Z,30.3
2018-07-23T09:10:59.747Z,30.18
2018-07-23T09:11:25.230Z,30.18
2018-07-23T09:11:50.719Z,30.09
2018-07-23T09:12:16.228Z,30.13
2018-07-23T09:12:41.739Z,30.08
2018-07-23T09:13:07.211Z,30.02
2018-07-23T09:13:32.705Z,30.02
2018-07-23T09:13:58.255Z,30
2018-07-23T09:14:23.740Z,29.97
2018-07-23T09:14:49.229Z,29.93
2018-07-23T09:15:14.705Z,29.95
2018-07-23T09:15:40.216Z,30.08
2018-07-23T09:16:05.720Z,29.97
2018-07-23T09:16:31.218Z,29.98
2018-07-23T09:16:56.707Z,29.97
2018-07-23T09:17:22.230Z,30
2018-07-23T09:17:47.683Z,30.03
2018-07-23T09:18:13.150Z,30.09
2018-07-23T09:18:38.663Z,30.08
2018-07-23T09:19:04.145Z,30.06
2018-07-23T09:19:29.643Z,30.09
2018-07-23T09:19:55.130Z,30.18
2018-07-23T09:20:20.613Z,30.16
2018-07-23T09:21:18.652Z,30.28
2018-07-23T09:21:44.155Z,30.28
2018-07-23T09:22:09.654Z,30.32
2018-07-23T09:22:35.212Z,30.39
2018-07-23T09:23:00.687Z,30.34
2018-07-23T09:23:26.197Z,30.31
2018-07-23T09:23:51.775Z,30.35
2018-07-23T09:24:17.193Z,30.4
2018-07-23T09:24:42.713Z,30.34
2018-07-23T09:25:08.171Z,30.31
2018-07-23T09:25:33.645Z,30.47
2018-07-23T09:25:59.144Z,30.4
2018-07-23T09:26:24.648Z,30.43
2018-07-23T09:26:50.135Z,30.47
2018-07-23T09:27:15.637Z,30.44
2018-07-23T09:28:04.464Z,30.43
2018-07-23T09:28:29.963Z,30.46
2018-07-23T09:28:55.472Z,30.44
2018-07-23T09:29:20.942Z,30.44
2018-07-23T09:29:46.456Z,30.4
2018-07-23T09:30:12.009Z,30.35
2018-07-23T09:30:37.472Z,30.37
2018-07-23T09:31:03.004Z,30.34
2018-07-23T09:31:28.470Z,30.34
2018-07-23T09:31:53.931Z,30.34
2018-07-23T09:32:19.455Z,30.34
2018-07-23T09:32:44.940Z,30.31
2018-07-23T09:33:10.453Z,30.3
2018-07-23T09:33:35.933Z,30.32
2018-07-23T09:34:01.416Z,30.35
2018-07-23T09:34:26.920Z,30.39
2018-07-23T09:34:52.404Z,30.47
2018-07-23T09:35:17.908Z,30.4
2018-07-23T09:35:43.396Z,30.34
2018-07-23T09:36:08.894Z,30.34
2018-07-23T09:36:34.377Z,30.47
2018-07-23T09:36:59.875Z,30.47
2018-07-23T09:37:25.396Z,30.53
2018-07-23T09:37:50.924Z,30.53
2018-07-23T09:38:16.451Z,30.54
2018-07-23T09:38:41.933Z,30.51
2018-07-23T09:39:07.416Z,30.57
2018-07-23T09:39:32.893Z,30.61
2018-07-23T09:39:58.374Z,30.53
2018-07-23T09:40:23.856Z,30.59
2018-07-23T09:40:49.314Z,30.51
2018-07-23T09:41:14.856Z,30.57
2018-07-23T09:41:40.344Z,30.63
2018-07-23T09:42:05.827Z,30.53
2018-07-23T09:42:31.316Z,30.61
2018-07-23T09:42:56.808Z,30.57
2018-07-23T09:43:22.298Z,30.57
2018-07-23T09:43:47.782Z,30.61
2018-07-23T09:44:13.295Z,30.66
2018-07-23T09:44:38.798Z,30.65
2018-07-23T09:45:04.305Z,30.68
2018-07-23T09:45:29.801Z,30.66
2018-07-23T09:45:55.286Z,30.68
2018-07-23T09:46:20.782Z,30.72
2018-07-23T09:46:46.269Z,30.72
2018-07-23T09:47:11.762Z,30.66
2018-07-23T09:47:37.294Z,30.72
2018-07-23T09:48:02.759Z,30.75